Time;durP1;ratioP1;P1;durP2;ratioP2;P2;SDS_P1;SDS_P2;PMS_P1;PMS_P2;Temp;Humidity;BMP_temperature;BMP_pressure;BME280_temperature;BME280_humidity;BME280_pressure;Samples;Min_cycle;Max_cycle;Signal;HPM_P1;HPM_P2
2021/06/01 00:02:15;;;;;;;3.15;2.88;;;;;;;14.09;59.44;100728.28;4966986;28;20086;-62
2021/06/01 00:04:42;;;;;;;4.45;3.53;;;;;;;14.08;59.23;100729.22;4982297;28;20053;-62
2021/06/01 00:07:08;;;;;;;4.07;3.33;;;;;;;14.06;59.92;100725.78;4978391;28;20046;-61
2021/06/01 00:09:35;;;;;;;5.57;3.42;;;;;;;14.07;59.92;100729.28;4987772;28;20074;-63
2021/06/01 00:12:01;;;;;;;5.20;3.40;;;;;;;14.04;59.54;100732.97;4985302;28;20054;-61
2021/06/01 00:14:28;;;;;;;4.05;3.38;;;;;;;13.98;59.31;100731.53;4986639;28;20110;-61
2021/06/01 00:16:55;;;;;;;3.60;3.17;;;;;;;13.96;59.47;100737.91;4980647;28;21237;-61
2021/06/01 00:19:21;;;;;;;6.20;3.47;;;;;;;13.95;59.39;100739.69;4979037;28;20064;-61
2021/06/01 00:21:48;;;;;;;6.65;3.40;;;;;;;13.94;59.06;100739.78;4985385;28;20049;-61
2021/06/01 00:24:15;;;;;;;3.53;3.15;;;;;;;13.90;59.32;100735.56;4977128;28;20098;-61
2021/06/01 00:26:42;;;;;;;4.00;3.30;;;;;;;13.84;59.21;100733.25;4975095;28;20058;-61
2021/06/01 00:29:09;;;;;;;5.97;3.30;;;;;;;13.82;59.64;100740.47;4977373;28;20130;-61
2021/06/01 00:31:36;;;;;;;4.30;3.10;;;;;;;13.75;59.81;100733.75;4982180;28;20054;-60
2021/06/01 00:34:04;;;;;;;5.57;3.20;;;;;;;13.71;60.34;100733.03;4971927;28;20046;-62
2021/06/01 00:36:31;;;;;;;4.40;2.90;;;;;;;13.68;60.63;100730.56;4981609;28;20054;-61
2021/06/01 00:38:58;;;;;;;6.70;3.33;;;;;;;13.65;60.24;100725.41;4973905;28;20049;-61
2021/06/01 00:41:24;;;;;;;3.42;2.97;;;;;;;13.59;60.57;100726.59;4979048;28;20049;-61
2021/06/01 00:43:51;;;;;;;4.40;3.17;;;;;;;13.54;61.08;100720.66;4979204;28;20058;-61
2021/06/01 00:46:17;;;;;;;4.32;3.20;;;;;;;13.56;61.29;100726.75;4977902;28;20490;-62
2021/06/01 00:48:44;;;;;;;5.35;3.58;;;;;;;13.57;61.36;100733.78;4977773;28;21889;-62
2021/06/01 00:51:10;;;;;;;4.15;3.20;;;;;;;13.58;61.41;100722.22;4980570;28;20076;-60
2021/06/01 00:53:37;;;;;;;5.30;3.50;;;;;;;13.61;61.14;100721.19;4979744;28;20507;-60
2021/06/01 00:56:05;;;;;;;5.05;3.45;;;;;;;13.58;61.64;100724.88;4978392;28;20054;-60
2021/06/01 00:58:32;;;;;;;6.43;3.33;;;;;;;13.60;61.35;100723.00;4973712;28;20046;-61
2021/06/01 01:03:25;;;;;;;3.97;3.47;;;;;;;13.54;61.73;100725.09;4979610;28;20049;-63
2021/06/01 01:05:55;;;;;;;4.53;3.38;;;;;;;13.50;61.90;100727.09;4975973;28;20045;-62
2021/06/01 01:11:05;;;;;;;4.07;3.33;;;;;;;13.30;62.27;100730.81;4988631;28;20950;-60
2021/06/01 01:13:56;;;;;;;3.67;3.30;;;;;;;13.21;62.37;100727.78;4973380;28;20054;-61
2021/06/01 01:16:25;;;;;;;4.05;3.35;;;;;;;13.19;63.10;100730.53;4978047;28;20687;-60
2021/06/01 01:19:05;;;;;;;4.40;3.78;;;;;;;13.21;62.71;100728.66;4970171;28;20101;-62
2021/06/01 01:21:36;;;;;;;6.82;3.78;;;;;;;13.18;63.12;100723.50;4992699;28;20501;-62
2021/06/01 01:24:20;;;;;;;6.35;3.60;;;;;;;13.17;63.71;100727.09;4978478;28;20042;-62
2021/06/01 01:26:54;;;;;;;4.30;3.35;;;;;;;13.13;63.33;100727.28;4981152;28;20053;-62
2021/06/01 01:29:43;;;;;;;7.82;3.55;;;;;;;13.10;63.81;100730.09;4991197;28;20046;-62
2021/06/01 01:32:34;;;;;;;4.85;3.78;;;;;;;13.09;63.76;100726.56;4972180;28;20058;-62
2021/06/01 01:35:02;;;;;;;4.93;3.97;;;;;;;13.00;63.72;100735.03;4972266;28;20052;-62
2021/06/01 01:37:32;;;;;;;5.97;3.70;;;;;;;12.91;64.41;100733.69;4969917;28;20058;-63
2021/06/01 01:40:00;;;;;;;4.78;4.28;;;;;;;12.85;64.59;100735.81;4987853;28;20065;-62
2021/06/01 01:42:40;;;;;;;5.20;3.70;;;;;;;12.81;65.16;100732.47;4990069;28;20046;-62
2021/06/01 01:45:12;;;;;;;5.28;3.58;;;;;;;12.80;65.17;100727.22;4995009;28;20458;-62
2021/06/01 01:50:16;;;;;;;4.53;3.70;;;;;;;12.73;65.22;100725.84;4977239;28;20181;-62
2021/06/01 01:52:44;;;;;;;4.45;4.05;;;;;;;12.68;65.32;100726.06;4981505;28;20057;-61
2021/06/01 01:55:14;;;;;;;6.55;4.00;;;;;;;12.63;65.23;100728.06;4982293;28;20324;-61
2021/06/01 01:57:46;;;;;;;5.47;3.78;;;;;;;12.58;65.19;100730.97;4976009;28;20525;-62
2021/06/01 02:00:16;;;;;;;6.25;4.25;;;;;;;12.52;65.23;100728.63;4983099;28;20112;-62
2021/06/01 02:02:47;;;;;;;5.23;3.97;;;;;;;12.45;65.39;100728.97;4974134;28;20067;-61
2021/06/01 02:05:18;;;;;;;5.57;3.83;;;;;;;12.41;65.81;100730.09;4975612;28;20892;-61
2021/06/01 02:07:45;;;;;;;4.90;4.25;;;;;;;12.38;65.37;100720.47;4973773;28;20043;-61
2021/06/01 02:10:12;;;;;;;5.13;4.00;;;;;;;12.36;65.74;100734.75;4976413;28;20058;-66
2021/06/01 02:12:38;;;;;;;4.97;3.95;;;;;;;12.36;64.88;100734.75;4978721;28;20047;-62
2021/06/01 02:15:07;;;;;;;6.68;3.95;;;;;;;12.33;65.41;100733.09;4977535;28;20410;-62
2021/06/01 02:17:34;;;;;;;5.43;3.60;;;;;;;12.30;65.38;100728.78;4978600;28;20047;-61
2021/06/01 02:20:01;;;;;;;4.05;3.53;;;;;;;12.32;64.91;100727.88;4978572;28;20429;-61
2021/06/01 02:25:22;;;;;;;6.25;3.60;;;;;;;12.35;64.52;100727.72;4976146;28;20482;-62
2021/06/01 02:28:24;;;;;;;4.32;3.60;;;;;;;12.33;64.47;100735.75;4978467;28;20088;-61
2021/06/01 02:31:14;;;;;;;5.93;3.85;;;;;;;12.30;64.42;100733.25;4973009;28;20059;-61
2021/06/01 02:33:43;;;;;;;3.95;3.55;;;;;;;12.30;64.88;100731.44;4981709;28;20057;-61
2021/06/01 02:36:14;;;;;;;4.20;3.70;;;;;;;12.28;64.63;100730.66;4975346;28;20398;-62
2021/06/01 02:38:42;;;;;;;5.18;3.90;;;;;;;12.26;64.71;100734.34;4972121;28;20047;-62
2021/06/01 02:41:10;;;;;;;4.55;3.85;;;;;;;12.22;64.98;100736.28;4988578;28;20049;-60
2021/06/01 02:43:37;;;;;;;4.75;4.00;;;;;;;12.18;64.85;100734.72;4983044;28;20050;-60
2021/06/01 02:46:04;;;;;;;5.85;3.97;;;;;;;12.15;64.74;100734.00;4976944;28;20156;-62
2021/06/01 02:48:31;;;;;;;4.80;3.85;;;;;;;12.14;64.75;100737.56;4974858;28;20058;-61
2021/06/01 02:51:13;;;;;;;4.40;3.88;;;;;;;12.15;64.91;100736.66;4980664;28;20061;-61
2021/06/01 02:53:54;;;;;;;7.13;4.15;;;;;;;12.16;65.30;100733.06;4978836;28;20054;-61
2021/06/01 02:56:22;;;;;;;5.45;3.90;;;;;;;12.20;65.48;100735.50;4975716;28;20054;-61
2021/06/01 02:58:50;;;;;;;5.32;3.88;;;;;;;12.22;65.71;100740.75;4976240;28;20057;-62
2021/06/01 03:01:20;;;;;;;5.35;3.53;;;;;;;12.23;65.65;100739.81;4984264;28;20053;-62
2021/06/01 03:03:52;;;;;;;4.75;3.83;;;;;;;12.25;65.25;100744.13;4979062;28;20050;-62
2021/06/01 03:06:20;;;;;;;4.68;3.80;;;;;;;12.21;64.96;100737.22;4987095;28;20064;-62
2021/06/01 03:08:47;;;;;;;4.47;3.70;;;;;;;12.13;65.14;100739.38;4971040;28;20050;-62
2021/06/01 03:11:16;;;;;;;4.13;3.70;;;;;;;12.06;65.38;100739.75;4968693;28;20415;-62
2021/06/01 03:13:44;;;;;;;6.95;3.72;;;;;;;12.00;65.04;100726.75;4975036;28;20050;-61
2021/06/01 03:16:11;;;;;;;4.70;3.60;;;;;;;11.99;65.24;100740.97;4964348;28;20066;-62
2021/06/01 03:18:38;;;;;;;6.10;3.97;;;;;;;11.98;65.42;100736.59;4969617;28;20589;-61
2021/06/01 03:21:05;;;;;;;4.18;3.38;;;;;;;11.96;65.43;100734.03;4965033;28;20050;-61
2021/06/01 03:23:31;;;;;;;4.88;4.00;;;;;;;11.95;65.76;100734.97;4981202;28;20050;-61
2021/06/01 03:25:58;;;;;;;7.22;4.20;;;;;;;11.99;65.67;100735.66;4978779;28;20042;-60
2021/06/01 03:28:26;;;;;;;7.55;4.28;;;;;;;12.00;65.87;100732.06;4974237;28;20055;-60
2021/06/01 03:30:53;;;;;;;8.43;4.28;;;;;;;12.03;65.93;100730.13;4980032;28;20066;-61
2021/06/01 03:33:19;;;;;;;5.85;3.95;;;;;;;12.03;65.82;100730.13;4973393;28;20651;-61
2021/06/01 03:35:46;;;;;;;6.10;4.32;;;;;;;12.01;66.08;100734.66;4973138;28;20046;-60
2021/06/01 03:38:13;;;;;;;7.57;4.30;;;;;;;12.00;66.23;100734.72;4968057;28;20475;-61
2021/06/01 03:40:40;;;;;;;4.63;3.90;;;;;;;12.00;66.35;100737.38;4971812;28;20054;-61
2021/06/01 03:43:07;;;;;;;5.25;4.03;;;;;;;12.00;66.45;100735.59;4982391;28;20057;-61
2021/06/01 03:45:34;;;;;;;4.65;4.25;;;;;;;12.00;67.20;100735.59;4980239;28;20417;-61
2021/06/01 03:48:01;;;;;;;5.45;4.15;;;;;;;12.03;66.91;100732.78;4978279;28;20093;-62
2021/06/01 03:50:28;;;;;;;6.65;4.00;;;;;;;12.06;66.87;100724.69;4969791;28;20042;-61
2021/06/01 03:52:54;;;;;;;8.65;4.10;;;;;;;12.05;66.55;100730.94;4954377;28;20050;-62
2021/06/01 03:55:21;;;;;;;5.03;4.38;;;;;;;12.05;66.43;100728.28;4971848;28;20577;-58
2021/06/01 03:57:48;;;;;;;6.80;4.03;;;;;;;12.05;66.30;100728.28;4951704;28;20058;-60
2021/06/01 04:00:21;;;;;;;7.57;4.60;;;;;;;12.04;66.36;100736.31;4965481;28;20054;-60
2021/06/01 04:02:48;;;;;;;4.53;3.92;;;;;;;12.06;66.69;100729.13;4983749;28;20054;-62
2021/06/01 04:05:21;;;;;;;9.05;4.13;;;;;;;12.08;66.15;100727.28;4972461;28;20938;-61
2021/06/01 04:07:47;;;;;;;5.13;3.95;;;;;;;12.09;66.25;100731.66;4977633;28;20089;-61
2021/06/01 04:10:15;;;;;;;5.05;4.22;;;;;;;12.09;66.52;100723.69;4966975;28;20141;-62
2021/06/01 04:12:42;;;;;;;4.57;4.10;;;;;;;12.12;66.30;100729.69;4970038;28;20057;-62
2021/06/01 04:15:11;;;;;;;6.45;4.20;;;;;;;12.13;66.49;100731.41;4985111;28;20046;-62
2021/06/01 04:17:37;;;;;;;4.78;4.28;;;;;;;12.13;66.30;100730.53;4977253;28;20735;-63
2021/06/01 04:20:05;;;;;;;7.78;4.05;;;;;;;12.12;65.72;100735.00;4978667;28;20042;-62
2021/06/01 04:22:32;;;;;;;5.38;4.15;;;;;;;12.17;65.78;100732.13;4973967;28;20089;-63
2021/06/01 04:24:58;;;;;;;4.80;4.28;;;;;;;12.17;65.68;100738.28;4972651;28;20684;-60
2021/06/01 04:27:25;;;;;;;4.35;3.80;;;;;;;12.20;65.73;100738.16;4994830;28;20049;-61
2021/06/01 04:29:51;;;;;;;5.15;4.15;;;;;;;12.26;65.54;100735.22;4964467;28;20538;-62
2021/06/01 04:32:18;;;;;;;8.82;4.72;;;;;;;12.33;64.83;100741.06;4974562;28;20517;-62
2021/06/01 04:34:46;;;;;;;8.95;4.40;;;;;;;12.35;65.05;100743.66;4971864;28;20054;-61
2021/06/01 04:37:12;;;;;;;6.70;4.50;;;;;;;12.36;64.61;100740.06;4973386;28;20073;-62
2021/06/01 04:39:43;;;;;;;5.05;4.22;;;;;;;12.41;64.40;100732.75;4973709;28;20059;-62
2021/06/01 04:42:10;;;;;;;5.25;4.10;;;;;;;12.47;63.90;100730.63;4978291;28;21156;-62
2021/06/01 04:44:36;;;;;;;5.68;4.30;;;;;;;12.53;63.26;100738.31;4977888;28;20054;-62
2021/06/01 04:47:03;;;;;;;10.70;4.85;;;;;;;12.57;63.32;100737.22;4966156;28;20054;-63
2021/06/01 04:49:30;;;;;;;7.70;4.50;;;;;;;12.62;63.21;100734.31;4969797;28;20077;-61
2021/06/01 04:51:56;;;;;;;7.10;4.45;;;;;;;12.68;63.03;100727.84;4982693;28;20056;-62
2021/06/01 04:54:23;;;;;;;6.25;4.45;;;;;;;12.73;62.46;100729.34;4971881;28;20046;-63
2021/06/01 04:56:49;;;;;;;6.22;4.22;;;;;;;12.77;62.29;100730.88;4980666;28;20398;-62
2021/06/01 04:59:16;;;;;;;6.25;3.97;;;;;;;12.83;62.42;100733.25;4964835;28;20518;-64
2021/06/01 05:01:42;;;;;;;5.22;4.30;;;;;;;12.90;62.13;100734.66;4980867;28;20150;-62
2021/06/01 05:04:09;;;;;;;5.75;4.10;;;;;;;12.96;61.55;100729.03;4980120;28;20412;-62
2021/06/01 05:06:35;;;;;;;5.38;4.30;;;;;;;13.07;61.09;100728.44;4970539;28;20046;-62
2021/06/01 05:09:04;;;;;;;5.03;3.88;;;;;;;13.16;61.17;100725.38;4974640;28;20054;-62
2021/06/01 05:11:32;;;;;;;5.80;4.18;;;;;;;13.22;59.92;100725.03;4970107;28;20108;-61
2021/06/01 05:13:59;;;;;;;6.15;4.30;;;;;;;13.31;59.73;100729.00;4975275;28;20073;-62
2021/06/01 05:16:26;;;;;;;7.43;4.22;;;;;;;13.33;59.90;100719.16;4976373;28;20058;-61
2021/06/01 05:18:52;;;;;;;10.48;4.40;;;;;;;13.40;59.24;100725.84;4967561;28;20058;-62
2021/06/01 05:21:19;;;;;;;10.07;4.07;;;;;;;13.47;59.21;100723.75;4977731;28;20070;-62
2021/06/01 05:23:45;;;;;;;4.85;3.75;;;;;;;13.55;59.24;100719.72;4978975;28;20117;-62
2021/06/01 05:26:12;;;;;;;5.05;4.20;;;;;;;13.63;59.07;100719.31;4990323;28;20133;-62
2021/06/01 05:28:38;;;;;;;6.45;3.95;;;;;;;13.74;59.67;100718.72;4977897;28;20042;-61
2021/06/01 05:33:34;;;;;;;6.28;3.65;;;;;;;13.86;58.78;100710.03;4981759;28;20485;-60
2021/06/01 05:36:01;;;;;;;6.28;3.75;;;;;;;13.95;59.43;100714.88;4971193;28;20061;-60
2021/06/01 05:38:32;;;;;;;4.40;4.00;;;;;;;14.07;58.78;100724.84;4978722;28;20060;-63
2021/06/01 05:41:01;;;;;;;4.82;3.83;;;;;;;14.18;58.00;100721.56;4978754;28;20053;-61
2021/06/01 05:43:29;;;;;;;4.80;3.63;;;;;;;14.29;57.52;100720.03;4978608;28;20054;-60
2021/06/01 05:45:56;;;;;;;4.05;3.60;;;;;;;14.41;57.97;100718.47;4975663;28;20046;-60
2021/06/01 05:48:23;;;;;;;4.63;4.13;;;;;;;14.51;57.27;100716.13;4974467;28;20061;-61
2021/06/01 05:50:49;;;;;;;4.60;4.00;;;;;;;14.65;56.87;100722.38;4971253;28;20042;-60
2021/06/01 05:53:17;;;;;;;6.78;3.58;;;;;;;14.80;55.76;100719.75;4964366;28;20501;-62
2021/06/01 05:55:45;;;;;;;5.45;3.80;;;;;;;14.88;55.29;100714.84;4971478;28;20038;-61
2021/06/01 05:58:12;;;;;;;6.05;3.90;;;;;;;15.00;55.57;100717.63;4979497;28;20852;-61
2021/06/01 06:00:39;;;;;;;6.80;3.75;;;;;;;15.25;54.49;100716.16;4963699;28;20038;-62
2021/06/01 06:03:05;;;;;;;5.30;3.80;;;;;;;16.53;50.06;100713.31;4981010;28;20057;-64
2021/06/01 06:05:32;;;;;;;4.47;3.53;;;;;;;18.75;44.02;100706.31;4975283;28;20054;-64
2021/06/01 06:08:06;;;;;;;4.10;3.20;;;;;;;20.63;40.07;100719.03;4977836;28;20046;-63
2021/06/01 06:10:33;;;;;;;4.50;3.38;;;;;;;22.43;35.95;100704.09;4973954;28;20038;-64
2021/06/01 06:13:00;;;;;;;4.85;3.15;;;;;;;23.92;32.95;100716.97;4973399;28;20050;-64
2021/06/01 06:15:28;;;;;;;5.32;3.10;;;;;;;25.42;30.05;100708.94;4979402;28;20057;-63
2021/06/01 06:18:05;;;;;;;7.68;6.68;;;;;;;26.92;28.14;100705.38;4977559;28;20142;-61
2021/06/01 06:20:34;;;;;;;5.97;3.20;;;;;;;27.27;26.76;100710.66;4971267;28;20046;-63
2021/06/01 06:23:01;;;;;;;4.07;2.97;;;;;;;27.59;26.02;100713.31;4983473;28;20051;-62
2021/06/01 06:25:28;;;;;;;3.17;2.88;;;;;;;27.43;26.54;100711.47;4969159;28;20050;-63
2021/06/01 06:27:55;;;;;;;3.90;2.55;;;;;;;27.68;26.28;100711.44;4979178;28;20090;-62
2021/06/01 06:30:23;;;;;;;4.55;2.85;;;;;;;27.89;25.00;100708.97;4968269;28;20057;-62
2021/06/01 06:32:50;;;;;;;8.57;2.83;;;;;;;28.20;24.94;100712.59;4971157;28;20402;-61
2021/06/01 06:35:18;;;;;;;2.80;2.60;;;;;;;28.48;24.62;100720.28;4981435;28;20074;-61
2021/06/01 06:37:45;;;;;;;3.47;2.22;;;;;;;29.04;25.16;100716.28;4971522;28;20054;-61
2021/06/01 06:40:12;;;;;;;3.00;2.67;;;;;;;29.93;24.38;100706.31;4982649;28;20041;-61
2021/06/01 06:42:39;;;;;;;3.20;2.58;;;;;;;30.65;23.76;100709.13;4984326;28;20046;-62
2021/06/01 06:45:08;;;;;;;4.82;2.65;;;;;;;30.56;22.41;100710.28;4999621;28;20051;-59
2021/06/01 06:50:19;;;;;;;3.63;2.60;;;;;;;30.01;23.11;100709.00;4976402;28;20043;-61
2021/06/01 06:52:46;;;;;;;7.00;2.60;;;;;;;30.23;23.96;100707.13;4981343;28;20074;-57
2021/06/01 06:55:14;;;;;;;5.60;2.70;;;;;;;30.91;23.00;100712.09;4976917;28;20066;-60
2021/06/01 06:57:41;;;;;;;2.65;2.42;;;;;;;31.16;22.28;100709.00;4974294;28;20596;-61
2021/06/01 07:00:09;;;;;;;2.67;2.47;;;;;;;30.41;21.89;100710.31;4973248;28;20129;-63
2021/06/01 07:02:36;;;;;;;5.15;2.60;;;;;;;30.43;22.64;100704.66;4972445;28;20056;-60
2021/06/01 07:05:04;;;;;;;2.45;2.25;;;;;;;30.49;22.62;100703.88;4973448;28;20069;-62
2021/06/01 07:07:31;;;;;;;3.85;2.13;;;;;;;30.95;22.74;100707.94;4979240;28;20050;-60
2021/06/01 07:09:57;;;;;;;3.72;2.55;;;;;;;31.33;22.49;100699.41;4967333;28;22052;-62
2021/06/01 07:12:24;;;;;;;2.67;2.33;;;;;;;31.37;21.69;100701.56;4974341;28;20046;-62
2021/06/01 07:15:09;;;;;;;5.25;2.63;;;;;;;30.90;22.82;100698.63;4970415;28;20133;-60
2021/06/01 07:17:38;;;;;;;4.28;2.60;;;;;;;30.92;22.38;100696.53;4961592;28;20054;-60
2021/06/01 07:20:06;;;;;;;2.92;2.63;;;;;;;30.86;21.96;100695.44;4970163;28;20315;-58
2021/06/01 07:22:33;;;;;;;3.88;2.30;;;;;;;31.28;22.15;100697.31;4965906;28;20050;-60
2021/06/01 07:25:00;;;;;;;4.28;2.72;;;;;;;31.54;22.04;100695.78;4983987;28;20054;-61
2021/06/01 07:27:27;;;;;;;6.97;2.65;;;;;;;31.60;21.93;100694.97;4966860;28;20137;-60
2021/06/01 07:29:54;;;;;;;5.40;2.95;;;;;;;31.33;21.76;100696.69;4981065;28;20038;-59
2021/06/01 07:32:21;;;;;;;4.97;2.33;;;;;;;31.21;23.15;100701.88;4978963;28;20458;-61
2021/06/01 07:34:48;;;;;;;3.35;2.40;;;;;;;31.36;21.26;100702.59;4969760;28;20568;-60
2021/06/01 07:37:16;;;;;;;3.90;2.53;;;;;;;30.38;21.72;100709.88;4966762;28;20059;-60
2021/06/01 07:39:43;;;;;;;3.85;2.53;;;;;;;30.37;22.29;100703.56;4961543;28;20058;-59
2021/06/01 07:42:10;;;;;;;3.72;2.50;;;;;;;30.67;22.18;100696.97;4962284;28;20061;-60
2021/06/01 07:44:37;;;;;;;4.22;2.65;;;;;;;30.37;21.29;100694.50;4970658;28;20063;-61
2021/06/01 07:47:03;;;;;;;5.80;3.10;;;;;;;29.85;21.33;100690.06;4963242;28;20046;-61
2021/06/01 07:49:30;;;;;;;4.82;2.55;;;;;;;29.97;21.69;100692.13;4966929;28;20479;-60
2021/06/01 07:51:56;;;;;;;2.90;2.53;;;;;;;29.71;21.95;100690.91;4954844;28;20057;-61
2021/06/01 07:54:24;;;;;;;3.25;2.47;;;;;;;29.18;22.50;100690.94;4962989;28;20054;-63
2021/06/01 07:56:51;;;;;;;4.55;2.60;;;;;;;29.21;22.46;100687.00;4969888;28;20058;-60
2021/06/01 07:59:17;;;;;;;3.60;2.55;;;;;;;29.24;23.05;100683.91;4965856;28;20050;-60
2021/06/01 08:01:44;;;;;;;4.75;2.60;;;;;;;29.27;23.12;100681.66;4958825;28;20046;-60
2021/06/01 08:04:11;;;;;;;8.10;2.65;;;;;;;29.47;23.13;100687.41;4972683;28;20082;-59
2021/06/01 08:06:37;;;;;;;5.43;3.03;;;;;;;29.77;22.69;100673.75;4970920;28;20053;-62
2021/06/01 08:09:06;;;;;;;3.53;2.72;;;;;;;29.35;22.68;100683.44;4973959;28;20047;-59
2021/06/01 08:11:33;;;;;;;3.45;2.40;;;;;;;29.31;22.42;100684.84;4966976;28;20131;-58
2021/06/01 08:14:00;;;;;;;4.05;3.00;;;;;;;29.27;22.47;100680.81;4973732;28;20065;-58
2021/06/01 08:16:27;;;;;;;4.15;2.70;;;;;;;29.09;22.55;100689.34;4974498;28;20057;-60
2021/06/01 08:19:08;;;;;;;4.10;2.58;;;;;;;28.83;23.49;100672.50;4972593;28;20065;-61
2021/06/01 08:21:57;;;;;;;2.67;2.38;;;;;;;29.21;23.63;100668.75;4968093;28;20050;-62
2021/06/01 08:24:24;;;;;;;2.90;2.40;;;;;;;29.77;22.65;100671.03;4975738;28;20054;-58
2021/06/01 08:26:51;;;;;;;4.65;3.17;;;;;;;29.85;22.02;100665.47;4970967;28;20057;-59
2021/06/01 08:29:18;;;;;;;4.40;2.85;;;;;;;29.06;21.78;100659.69;4978203;28;21122;-62
2021/06/01 08:31:45;;;;;;;3.88;2.70;;;;;;;28.19;23.90;100666.47;4968465;28;20046;-63
2021/06/01 08:34:12;;;;;;;3.95;2.80;;;;;;;28.01;23.57;100661.31;4975373;28;20704;-60
2021/06/01 08:36:40;;;;;;;3.38;2.38;;;;;;;27.91;24.47;100661.50;4973679;28;20050;-61
2021/06/01 08:39:07;;;;;;;6.40;3.05;;;;;;;27.65;24.20;100655.50;4977013;28;20072;-59
2021/06/01 08:41:35;;;;;;;4.60;2.80;;;;;;;26.77;25.54;100651.88;4978575;28;20080;-60
2021/06/01 08:44:04;;;;;;;4.57;3.10;;;;;;;25.78;27.51;100657.28;4981133;28;20050;-58
2021/06/01 08:46:32;;;;;;;5.47;2.70;;;;;;;24.82;28.21;100662.75;4976696;28;20053;-59
2021/06/01 08:48:59;;;;;;;3.28;2.78;;;;;;;24.27;30.02;100642.28;4977365;28;20058;-60
2021/06/01 08:51:27;;;;;;;4.10;2.60;;;;;;;23.81;29.14;100651.38;4971637;28;20486;-61
2021/06/01 08:53:58;;;;;;;3.08;2.80;;;;;;;23.33;29.73;100639.75;4975263;28;20059;-60
2021/06/01 08:56:26;;;;;;;3.95;2.65;;;;;;;23.24;29.49;100645.22;4970825;28;20066;-60
2021/06/01 08:58:52;;;;;;;3.15;2.55;;;;;;;23.09;30.33;100642.13;4972954;28;20046;-59
2021/06/01 09:01:21;;;;;;;3.63;2.88;;;;;;;22.79;29.38;100636.94;4971238;28;20051;-61
2021/06/01 09:03:54;;;;;;;3.55;2.90;;;;;;;22.55;29.80;100630.09;4972591;28;20055;-63
2021/06/01 09:22:32;;;;;;;2.90;2.60;;;;;;;21.95;31.54;100617.69;4972101;28;21808;-58
2021/06/01 09:25:04;;;;;;;4.60;2.70;;;;;;;22.18;30.98;100616.50;4980561;28;20054;-62
2021/06/01 09:28:01;;;;;;;3.55;2.60;;;;;;;22.12;30.16;100606.25;4976031;28;20042;-60
2021/06/01 09:30:35;;;;;;;3.75;2.95;;;;;;;22.06;30.24;100604.09;4959306;28;20080;-60
2021/06/01 09:33:04;;;;;;;4.88;3.00;;;;;;;22.03;30.36;100607.09;4970135;28;20047;-62
2021/06/01 09:35:40;;;;;;;3.90;2.90;;;;;;;22.07;30.06;100607.66;4969020;28;20084;-57
2021/06/01 09:38:07;;;;;;;2.88;2.67;;;;;;;22.17;30.73;100595.03;4972819;28;20058;-60
2021/06/01 09:40:34;;;;;;;4.18;2.88;;;;;;;22.23;30.20;100597.16;4968353;28;20057;-57
2021/06/01 09:43:01;;;;;;;2.90;2.60;;;;;;;22.17;30.40;100592.34;4969075;28;20066;-58
2021/06/01 09:45:27;;;;;;;4.40;2.92;;;;;;;22.22;30.58;100590.06;4972398;28;20055;-56
2021/06/01 09:47:57;;;;;;;3.05;2.75;;;;;;;22.35;30.67;100574.47;4969602;28;20058;-57
2021/06/01 09:52:59;;;;;;;3.58;2.90;;;;;;;22.59;29.93;100580.25;4974724;28;20058;-58
2021/06/01 09:55:34;;;;;;;4.70;2.60;;;;;;;22.66;29.89;100580.53;4972458;28;20061;-57
2021/06/01 09:58:06;;;;;;;3.50;2.78;;;;;;;22.77;29.53;100574.13;4972143;28;20053;-57
2021/06/01 10:00:36;;;;;;;4.28;2.78;;;;;;;22.70;29.21;100577.38;4987921;28;20051;-58
2021/06/01 10:03:05;;;;;;;3.63;2.70;;;;;;;22.61;29.82;100570.16;4981208;28;20104;-59
2021/06/01 10:05:39;;;;;;;3.38;2.53;;;;;;;22.66;29.46;100570.56;4973108;28;20057;-59
2021/06/01 10:08:09;;;;;;;6.00;2.53;;;;;;;22.74;29.15;100568.00;4973078;28;20054;-58
2021/06/01 10:10:36;;;;;;;2.60;2.40;;;;;;;22.82;29.01;100572.72;4971288;28;20132;-60
2021/06/01 10:13:05;;;;;;;2.92;2.45;;;;;;;22.75;28.87;100564.28;4970520;28;20038;-56
2021/06/01 10:15:32;;;;;;;2.47;2.25;;;;;;;22.81;29.40;100562.91;4975436;28;20111;-59
2021/06/01 10:18:02;;;;;;;3.55;2.30;;;;;;;22.88;28.61;100546.94;4975523;28;20047;-59
2021/06/01 10:20:32;;;;;;;3.97;2.83;;;;;;;22.93;28.68;100558.16;4971762;28;20050;-60
2021/06/01 10:23:00;;;;;;;2.80;2.60;;;;;;;23.02;28.76;100563.53;4971125;28;20058;-62
2021/06/01 10:25:26;;;;;;;2.65;2.20;;;;;;;22.98;27.71;100550.47;4975093;28;20077;-59
2021/06/01 10:27:58;;;;;;;2.60;2.40;;;;;;;22.99;28.31;100555.72;4973986;28;20405;-59
2021/06/01 10:30:26;;;;;;;3.30;2.40;;;;;;;23.05;27.42;100552.44;4970759;28;20622;-58
2021/06/01 10:32:56;;;;;;;4.53;2.35;;;;;;;23.07;27.53;100549.59;4969612;28;20525;-58
2021/06/01 10:35:25;;;;;;;2.63;2.40;;;;;;;22.95;28.58;100548.94;4974662;28;20051;-62
2021/06/01 10:52:02;;;;;;;3.50;2.40;;;;;;;22.97;28.46;100533.44;4969873;28;20142;-61
2021/06/01 10:54:42;;;;;;;3.17;2.42;;;;;;;23.01;28.84;100520.44;4977964;28;20058;-58
2021/06/01 10:57:13;;;;;;;2.50;2.22;;;;;;;23.01;28.37;100523.16;4979111;28;20050;-62
2021/06/01 10:59:46;;;;;;;4.80;2.40;;;;;;;23.07;28.18;100526.13;4977242;28;20443;-58
2021/06/01 11:02:13;;;;;;;3.83;2.50;;;;;;;23.10;27.46;100522.28;4969808;28;20157;-62
2021/06/01 11:04:59;;;;;;;4.32;2.40;;;;;;;23.24;28.82;100519.06;4972035;28;20065;-60
2021/06/01 11:07:39;;;;;;;2.45;2.25;;;;;;;23.39;27.72;100516.72;4977107;28;20038;-62
2021/06/01 11:10:07;;;;;;;2.88;2.10;;;;;;;23.24;27.31;100523.63;4971579;28;20045;-60
2021/06/01 11:12:40;;;;;;;4.88;2.40;;;;;;;23.36;27.36;100515.16;4972292;28;20449;-58
2021/06/01 11:15:24;;;;;;;5.00;2.47;;;;;;;23.58;26.81;100518.47;4974688;28;20146;-62
2021/06/01 11:17:52;;;;;;;3.58;2.42;;;;;;;23.60;26.46;100516.47;4968829;28;20055;-65
2021/06/01 11:20:34;;;;;;;3.42;2.30;;;;;;;23.51;26.39;100509.25;4970246;28;20054;-61
2021/06/01 11:23:14;;;;;;;2.67;2.38;;;;;;;23.55;26.86;100506.13;4970481;28;20108;-61
2021/06/01 11:33:55;;;;;;;3.45;2.10;;;;;;;23.62;27.00;100496.38;4977274;28;20057;-63
2021/06/01 11:36:21;;;;;;;3.42;2.30;;;;;;;23.85;27.01;100488.66;4981581;28;20050;-63
2021/06/01 11:44:15;;;;;;;2.15;2.05;;;;;;;24.02;25.27;100481.56;4969350;28;20526;-65
2021/06/01 11:46:48;;;;;;;3.47;2.25;;;;;;;24.06;25.66;100480.25;4973602;28;20510;-64
2021/06/01 11:52:00;;;;;;;2.65;2.00;;;;;;;24.41;25.37;100457.66;4969709;28;20521;-62
2021/06/01 11:54:26;;;;;;;2.30;2.10;;;;;;;24.44;25.01;100460.06;4967699;28;20505;-60
2021/06/01 12:05:20;;;;;;;2.00;1.90;;;;;;;24.63;24.33;100459.84;4961573;28;20054;-62
2021/06/01 12:13:46;;;;;;;3.20;2.20;;;;;;;24.69;24.66;100453.81;4959863;28;20050;-60
2021/06/01 12:19:05;;;;;;;4.07;2.28;;;;;;;24.62;24.25;100444.63;4966612;28;20511;-62
2021/06/01 12:21:38;;;;;;;3.25;2.10;;;;;;;24.73;23.93;100432.63;4964972;28;20051;-62
2021/06/01 12:24:12;;;;;;;2.50;2.15;;;;;;;24.89;24.36;100442.69;4974164;28;20080;-62
2021/06/01 12:27:13;;;;;;;2.85;1.80;;;;;;;24.91;24.11;100427.13;4957579;28;20065;-62
2021/06/01 12:32:32;;;;;;;2.92;2.33;;;;;;;25.03;24.60;100421.28;4977653;28;20060;-63
2021/06/01 13:32:08;;;;;;;3.10;2.30;;;;;;;25.71;23.79;100358.72;4963199;28;20052;-62
2021/06/01 13:39:57;;;;;;;3.75;2.10;;;;;;;25.94;23.01;100367.03;4972183;28;20054;-62
2021/06/01 13:56:01;;;;;;;3.05;1.85;;;;;;;25.94;23.09;100333.63;4978497;28;20505;-62
2021/06/01 14:19:56;;;;;;;1.70;1.60;;;;;;;26.00;22.38;100316.63;4963894;28;20066;-61
2021/06/01 14:28:31;;;;;;;3.08;1.80;;;;;;;25.82;22.24;100331.25;4973251;28;20038;-61
2021/06/01 14:30:27;;;;;;;2.65;2.03;;;;;;;25.83;22.01;100316.66;4974105;28;20054;-60
2021/06/01 14:38:27;;;;;;;2.15;1.83;;;;;;;26.02;22.80;100311.88;4986891;28;20565;-60
2021/06/01 15:07:31;;;;;;;2.88;2.00;;;;;;;27.07;21.03;100303.31;4975398;28;20051;-60
2021/06/01 15:09:21;;;;;;;;;;;;;;;27.01;21.66;100295.03;4980921;28;20046;-60
2021/06/01 15:31:15;;;;;;;3.60;1.80;;;;;;;27.08;21.80;100252.47;4979469;28;20418;-59
2021/06/01 15:49:32;;;;;;;2.15;1.80;;;;;;;25.70;23.17;100248.53;4989160;28;20454;-60